createdAt,value
2018-12-30T00:00:26.546Z,101033.65
2018-12-30T00:02:57.382Z,101032.00
2018-12-30T00:05:28.476Z,101034.16
2018-12-30T00:07:59.662Z,101024.53
2018-12-30T00:10:30.538Z,101025.42
2018-12-30T00:13:01.352Z,101026.72
2018-12-30T00:15:32.554Z,101018.91
2018-12-30T00:18:03.821Z,101009.22
2018-12-30T00:20:34.677Z,101017.50
2018-12-30T00:23:05.462Z,101018.40
2018-12-30T00:25:36.653Z,101012.30
2018-12-30T00:28:07.513Z,101005.80
2018-12-30T00:30:38.245Z,101009.75
2018-12-30T00:33:09.053Z,101005.88
2018-12-30T00:35:39.872Z,101009.73
2018-12-30T00:38:10.814Z,101001.84
2018-12-30T00:40:41.669Z,101001.81
2018-12-30T00:43:12.457Z,100999.63
2018-12-30T00:45:43.272Z,101002.24
2018-12-30T00:48:14.105Z,100997.50
2018-12-30T00:50:44.908Z,101000.60
2018-12-30T00:53:15.707Z,100998.83
2018-12-30T00:55:46.479Z,101001.47
2018-12-30T00:58:17.297Z,101009.48
2018-12-30T01:00:48.207Z,101006.34
2018-12-30T01:03:18.970Z,100993.56
2018-12-30T01:05:49.837Z,100999.70
2018-12-30T01:08:20.635Z,100998.83
2018-12-30T01:10:51.534Z,100999.76
2018-12-30T01:13:22.698Z,100994.55
2018-12-30T01:15:53.489Z,100998.91
2018-12-30T01:18:24.242Z,100996.70
2018-12-30T01:20:55.129Z,100995.80
2018-12-30T01:23:25.897Z,100988.83
2018-12-30T01:25:56.885Z,100992.75
2018-12-30T01:28:27.628Z,100987.55
2018-12-30T01:30:59.340Z,100986.69
2018-12-30T01:33:30.100Z,100989.31
2018-12-30T01:36:00.928Z,100991.06
2018-12-30T01:38:31.764Z,100987.99
2018-12-30T01:41:03.371Z,100983.63
2018-12-30T01:43:34.164Z,100981.86
2018-12-30T01:46:07.030Z,100985.38
2018-12-30T01:48:38.213Z,100984.50
2018-12-30T01:51:08.959Z,100986.31
2018-12-30T01:53:39.741Z,100984.56
2018-12-30T01:56:10.492Z,100984.11
2018-12-30T01:58:41.236Z,100984.99
2018-12-30T02:01:12.057Z,100987.19
2018-12-30T02:03:42.944Z,100986.77
2018-12-30T02:06:13.836Z,100987.63
2018-12-30T02:08:44.611Z,100987.31
2018-12-30T02:11:15.753Z,100984.28
2018-12-30T02:13:46.528Z,100989.55
2018-12-30T02:16:17.333Z,100978.95
2018-12-30T02:18:48.175Z,100981.59
2018-12-30T02:21:19.051Z,100985.94
2018-12-30T02:23:49.843Z,100982.46
2018-12-30T02:26:20.634Z,100973.33
2018-12-30T02:28:51.399Z,100975.50
2018-12-30T02:31:22.173Z,100971.15
2018-12-30T02:33:53.235Z,100974.66
2018-12-30T02:36:24.025Z,100972.47
2018-12-30T02:38:54.929Z,100973.33
2018-12-30T02:41:25.714Z,100968.95
2018-12-30T02:43:57.378Z,100964.14
2018-12-30T02:46:28.144Z,100962.83
2018-12-30T02:48:58.939Z,100965.91
2018-12-30T02:51:29.692Z,100956.67
2018-12-30T02:54:00.529Z,100956.25
2018-12-30T02:56:31.302Z,100955.41
2018-12-30T02:59:02.060Z,100957.14
2018-12-30T03:01:32.873Z,100956.28
2018-12-30T03:04:03.675Z,100951.91
2018-12-30T03:06:34.499Z,100949.28
2018-12-30T03:09:07.291Z,100950.58
2018-12-30T03:11:38.111Z,100939.23
2018-12-30T03:14:08.872Z,100944.04
2018-12-30T03:16:39.747Z,100945.35
2018-12-30T03:19:10.510Z,100946.67
2018-12-30T03:21:41.376Z,100948.42
2018-12-30T03:24:12.114Z,100938.82
2018-12-30T03:26:42.888Z,100940.98
2018-12-30T03:29:13.743Z,100934.91
2018-12-30T03:31:44.477Z,100936.64
2018-12-30T03:34:15.284Z,100936.22
2018-12-30T03:36:46.033Z,100924.83
2018-12-30T03:39:16.823Z,100934.03
2018-12-30T03:41:47.568Z,100935.77
2018-12-30T03:44:18.455Z,100930.08
2018-12-30T03:46:49.223Z,100932.72
2018-12-30T03:49:19.987Z,100925.70
2018-12-30T03:51:50.879Z,100930.09
2018-12-30T03:54:21.654Z,100932.27
2018-12-30T03:56:52.517Z,100931.42
2018-12-30T03:59:23.355Z,100929.25
2018-12-30T04:01:54.272Z,100926.59
2018-12-30T04:04:25.066Z,100926.62
2018-12-30T04:06:55.850Z,100929.67
2018-12-30T04:09:26.666Z,100924.87
2018-12-30T04:11:57.482Z,100928.83
2018-12-30T04:14:28.244Z,100931.02
2018-12-30T04:16:59.023Z,100925.34
2018-12-30T04:19:29.813Z,100930.56
2018-12-30T04:22:00.590Z,100930.56
2018-12-30T04:24:31.359Z,100935.37
2018-12-30T04:27:02.100Z,100931.48
2018-12-30T04:29:32.893Z,100933.23
2018-12-30T04:32:03.760Z,100933.23
2018-12-30T04:34:34.526Z,100929.31
2018-12-30T04:37:05.345Z,100928.42
2018-12-30T04:39:36.148Z,100928.41
2018-12-30T04:42:07.052Z,100935.00
2018-12-30T04:44:37.818Z,100935.45
2018-12-30T04:47:08.618Z,100935.86
2018-12-30T04:49:39.412Z,100931.92
2018-12-30T04:52:10.232Z,100936.30
2018-12-30T04:54:41.047Z,100936.73
2018-12-30T04:57:11.841Z,100941.13
2018-12-30T04:59:42.571Z,100939.83
2018-12-30T05:02:13.334Z,100945.95
2018-12-30T05:04:44.091Z,100943.31
2018-12-30T05:07:14.819Z,100946.81
2018-12-30T05:09:45.628Z,100948.13
2018-12-30T05:12:16.439Z,100954.28
2018-12-30T05:14:47.239Z,100952.98
2018-12-30T05:17:18.052Z,100951.23
2018-12-30T05:19:48.791Z,100955.63
2018-12-30T05:22:19.615Z,100957.80
2018-12-30T05:24:50.390Z,100961.30
2018-12-30T05:27:21.232Z,100957.37
2018-12-30T05:29:52.040Z,100967.47
2018-12-30T05:32:22.779Z,100970.55
2018-12-30T05:34:53.588Z,100969.25
2018-12-30T05:37:24.391Z,100972.33
2018-12-30T05:39:55.143Z,100975.80
2018-12-30T05:42:25.888Z,100976.25
2018-12-30T05:44:56.674Z,100981.53
2018-12-30T05:47:27.455Z,100982.83
2018-12-30T05:49:58.203Z,100993.34
2018-12-30T05:52:29.019Z,100994.23
2018-12-30T05:54:59.797Z,100996.45
2018-12-30T05:57:30.623Z,100996.87
2018-12-30T06:00:01.415Z,100995.55
2018-12-30T06:02:32.216Z,100993.36
2018-12-30T06:05:03.023Z,101007.41
2018-12-30T06:07:33.793Z,101006.52
2018-12-30T06:10:04.769Z,101007.83
2018-12-30T06:12:35.543Z,101010.88
2018-12-30T06:15:07.098Z,101010.91
2018-12-30T06:17:37.852Z,101016.61
2018-12-30T06:20:08.703Z,101017.47
2018-12-30T06:22:39.451Z,101024.93
2018-12-30T06:25:10.216Z,101025.39
2018-12-30T06:27:41.018Z,101028.89
2018-12-30T06:30:11.774Z,101031.94
2018-12-30T06:32:42.655Z,101037.66
2018-12-30T06:35:13.507Z,101041.16
2018-12-30T06:37:44.311Z,101041.59
2018-12-30T06:40:15.138Z,101044.67
2018-12-30T06:42:45.960Z,101052.13
2018-12-30T06:45:16.784Z,101058.25
2018-12-30T06:47:47.532Z,101059.16
2018-12-30T06:50:18.296Z,101057.83
2018-12-30T06:52:57.403Z,101068.34
2018-12-30T06:55:22.075Z,101080.20
2018-12-30T06:57:52.810Z,101079.77
2018-12-30T07:00:23.646Z,101091.18
2018-12-30T07:02:54.454Z,101090.73
2018-12-30T07:05:25.325Z,101098.20
2018-12-30T07:07:56.101Z,101103.46
2018-12-30T07:10:26.934Z,101103.91
2018-12-30T07:12:57.718Z,101105.68
2018-12-30T07:15:28.548Z,101138.16
2018-12-30T07:17:59.294Z,101135.95
2018-12-30T07:20:30.055Z,101143.88
2018-12-30T07:23:05.835Z,101146.06
2018-12-30T07:25:33.410Z,101150.00
2018-12-30T07:28:04.242Z,101157.47
2018-12-30T07:30:34.992Z,101159.64
2018-12-30T07:33:05.767Z,101173.69
2018-12-30T07:35:36.598Z,101174.11
2018-12-30T07:38:07.368Z,101176.73
2018-12-30T07:40:38.343Z,101176.72
2018-12-30T07:43:46.326Z,101174.53
2018-12-30T07:46:30.474Z,101196.43
2018-12-30T07:49:18.310Z,101197.30
2018-12-30T07:52:02.706Z,101206.92
2018-12-30T07:55:16.557Z,101213.50
2018-12-30T07:57:46.420Z,101220.97
2018-12-30T08:00:32.204Z,101217.04
2018-12-30T08:03:22.192Z,101224.05
2018-12-30T08:06:13.894Z,101240.71
2018-12-30T08:09:14.144Z,101245.98
2018-12-30T08:12:09.286Z,101245.98
2018-12-30T08:15:01.796Z,101251.22
2018-12-30T08:17:45.430Z,101267.43
2018-12-30T08:20:57.130Z,101263.48
2018-12-30T08:23:39.747Z,101290.18
2018-12-30T08:26:23.587Z,101283.98
2018-12-30T08:29:09.834Z,101307.59
2018-12-30T08:31:57.398Z,101290.50
2018-12-30T08:34:39.431Z,101330.34
2018-12-30T08:37:41.472Z,101317.63
2018-12-30T08:40:30.139Z,101315.45
2018-12-30T08:43:23.475Z,101332.09
2018-12-30T08:46:21.362Z,101331.18
2018-12-30T08:49:09.473Z,101335.61
2018-12-30T08:51:53.958Z,101348.73
2018-12-30T08:55:09.338Z,101360.14
2018-12-30T08:58:22.773Z,101354.00
2018-12-30T09:01:31.909Z,101362.30
2018-12-30T09:04:23.530Z,101363.64
2018-12-30T09:07:54.886Z,101386.00
2018-12-30T09:10:37.392Z,101385.52
2018-12-30T09:13:29.222Z,101396.41
2018-12-30T09:16:19.923Z,101403.09
2018-12-30T09:22:53.740Z,101431.55
2018-12-30T09:25:43.694Z,101438.06
2018-12-30T09:28:34.236Z,101431.05
2018-12-30T09:31:42.070Z,101422.73
2018-12-30T09:35:18.042Z,101438.02
2018-12-30T09:38:13.310Z,101452.42
2018-12-30T09:41:07.216Z,101456.30
2018-12-30T09:44:02.290Z,101464.56
2018-12-30T09:46:53.789Z,101455.32
2018-12-30T09:50:20.904Z,101458.41
2018-12-30T09:53:29.388Z,101470.73
2018-12-30T09:55:58.890Z,101470.70
2018-12-30T09:59:30.452Z,101479.45
2018-12-30T10:09:14.887Z,101478.65
2018-12-30T10:11:59.918Z,101479.05
2018-12-30T10:15:09.133Z,101480.39
2018-12-30T10:17:45.310Z,101487.38
2018-12-30T10:21:06.839Z,101477.70
2018-12-30T10:24:15.486Z,101493.12
2018-12-30T10:27:51.861Z,101505.87
2018-12-30T10:31:06.733Z,101505.58
2018-12-30T10:38:02.283Z,101512.91
2018-12-30T10:44:29.902Z,101455.08
2018-12-30T10:47:52.919Z,101527.81
2018-12-30T10:51:00.080Z,101522.95
2018-12-30T10:54:17.117Z,101533.06
2018-12-30T10:57:10.981Z,101540.53
2018-12-30T11:00:15.981Z,101526.06
2018-12-30T11:06:54.654Z,101546.77
2018-12-30T11:10:04.490Z,101543.31
2018-12-30T11:13:02.326Z,101540.23
2018-12-30T11:16:03.727Z,101543.74
2018-12-30T11:19:24.010Z,101538.05
2018-12-30T11:23:04.485Z,101541.95
2018-12-30T11:26:06.862Z,101545.11
2018-12-30T11:28:33.645Z,101545.20
2018-12-30T11:31:04.447Z,101537.66
2018-12-30T11:33:35.257Z,101539.97
2018-12-30T11:36:06.096Z,101539.93
2018-12-30T11:38:36.853Z,101541.35
2018-12-30T11:41:07.649Z,101541.26
2018-12-30T11:43:38.430Z,101543.53
2018-12-30T11:46:09.215Z,101549.27
2018-12-30T11:48:40.033Z,101551.05
2018-12-30T11:51:10.774Z,101547.66
2018-12-30T11:53:41.568Z,101552.03
2018-12-30T11:56:12.349Z,101556.40
2018-12-30T11:58:43.137Z,101555.97
2018-12-30T12:01:13.888Z,101562.55
2018-12-30T12:03:44.762Z,101567.02
2018-12-30T12:06:15.706Z,101556.55
2018-12-30T12:08:46.707Z,101570.70
2018-12-30T12:11:17.756Z,101570.62
2018-12-30T12:13:48.614Z,101570.58
2018-12-30T12:16:19.622Z,101576.66
2018-12-30T12:18:51.645Z,101578.02
2018-12-30T12:21:22.703Z,101577.16
2018-12-30T12:23:54.651Z,101587.27
2018-12-30T12:26:41.061Z,101585.14
2018-12-30T12:28:59.433Z,101579.92
2018-12-30T12:31:31.826Z,101578.97
2018-12-30T12:34:03.397Z,101585.16
2018-12-30T12:36:34.445Z,101589.09
2018-12-30T12:39:07.566Z,101591.35
2018-12-30T12:41:39.525Z,101599.66
2018-12-30T12:44:10.607Z,101598.75
2018-12-30T12:46:42.164Z,101606.17
2018-12-30T12:49:13.404Z,101604.41
2018-12-30T12:51:44.513Z,101600.54
2018-12-30T12:54:15.360Z,101600.91
2018-12-30T12:56:46.300Z,101599.62
2018-12-30T12:59:18.686Z,101597.09
2018-12-30T13:01:50.062Z,101598.92
2018-12-30T13:04:20.996Z,101601.06
2018-12-30T13:06:51.864Z,101603.74
2018-12-30T13:09:22.936Z,101601.59
2018-12-30T13:11:54.063Z,101603.86
2018-12-30T13:14:25.064Z,101608.22
2018-12-30T13:16:56.760Z,101618.28
2018-12-30T13:19:28.124Z,101622.25
2018-12-30T13:21:59.338Z,101609.98
2018-12-30T13:24:30.513Z,101622.29
2018-12-30T13:27:01.630Z,101624.02
2018-12-30T13:29:32.472Z,101633.31
2018-12-30T13:32:04.044Z,101628.05
2018-12-30T13:34:35.083Z,101624.08
2018-12-30T13:37:06.751Z,101625.83
2018-12-30T13:39:38.955Z,101634.59
2018-12-30T13:42:13.880Z,101631.05
2018-12-30T13:44:45.104Z,101627.97
2018-12-30T13:47:16.448Z,101640.75
2018-12-30T13:49:47.594Z,101632.84
2018-12-30T13:52:19.174Z,101637.23
2018-12-30T13:54:50.348Z,101624.43
2018-12-30T13:57:21.653Z,101633.17
2018-12-30T13:59:52.812Z,101633.16
2018-12-30T14:02:24.552Z,101629.14
2018-12-30T14:04:56.918Z,101637.49
2018-12-30T14:07:34.524Z,101641.83
2018-12-30T14:10:06.679Z,101644.42
2018-12-30T14:12:37.658Z,101641.86
2018-12-30T14:15:08.806Z,101646.78
2018-12-30T14:17:39.601Z,101642.37
2018-12-30T14:20:10.724Z,101647.55
2018-12-30T14:22:41.571Z,101644.94
2018-12-30T14:25:12.299Z,101648.86
2018-12-30T14:27:43.080Z,101651.07
2018-12-30T14:30:13.900Z,101645.81
2018-12-30T14:32:44.713Z,101649.38
2018-12-30T14:35:15.524Z,101649.77
2018-12-30T14:37:46.340Z,101656.40
2018-12-30T14:40:17.120Z,101654.65
2018-12-30T14:42:47.981Z,101653.72
2018-12-30T14:45:18.869Z,101655.99
2018-12-30T14:47:49.741Z,101650.70
2018-12-30T14:50:20.550Z,101664.39
2018-12-30T14:52:51.367Z,101667.91
2018-12-30T14:55:22.597Z,101684.98
2018-12-30T14:57:53.673Z,101679.67
2018-12-30T15:00:24.651Z,101685.00
2018-12-30T15:02:55.472Z,101684.14
2018-12-30T15:05:29.547Z,101691.63
2018-12-30T15:08:05.389Z,101689.36
2018-12-30T15:10:39.137Z,101683.28
2018-12-30T15:13:14.908Z,101685.83
2018-12-30T15:15:49.691Z,101687.64
2018-12-30T15:18:27.493Z,101681.98
2018-12-30T15:20:55.815Z,101680.53
2018-12-30T15:23:26.788Z,101681.50
2018-12-30T15:25:57.820Z,101676.14
2018-12-30T15:28:28.871Z,101673.52
2018-12-30T15:30:59.898Z,101672.62
2018-12-30T15:33:33.685Z,101666.50
2018-12-30T15:36:06.193Z,101676.12
2018-12-30T15:38:37.641Z,101685.80
2018-12-30T15:41:13.723Z,101687.86
2018-12-30T15:43:45.114Z,101685.27
2018-12-30T15:46:21.334Z,101695.88
2018-12-30T15:48:53.367Z,101699.78
2018-12-30T15:51:24.575Z,101701.14
2018-12-30T15:53:55.666Z,101695.03
2018-12-30T15:56:26.504Z,101690.08
2018-12-30T15:59:01.754Z,101697.11
2018-12-30T16:01:33.120Z,101704.16
2018-12-30T16:04:03.882Z,101709.42
2018-12-30T16:06:34.890Z,101705.88
2018-12-30T16:09:08.982Z,101706.80
2018-12-30T16:11:39.764Z,101717.66
2018-12-30T16:14:10.690Z,101715.44
2018-12-30T16:16:41.761Z,101715.98
2018-12-30T16:19:12.771Z,101719.92
2018-12-30T16:21:43.834Z,101724.78
2018-12-30T16:24:15.172Z,101729.63
2018-12-30T16:26:46.765Z,101739.75
2018-12-30T16:29:18.104Z,101739.69
2018-12-30T16:31:49.330Z,101748.86
2018-12-30T16:34:20.731Z,101757.12
2018-12-30T16:36:51.819Z,101772.52
2018-12-30T16:39:22.910Z,101763.41
2018-12-30T16:41:54.159Z,101760.39
2018-12-30T16:44:26.527Z,101761.20
2018-12-30T16:46:57.742Z,101786.66
2018-12-30T16:49:28.872Z,101774.84
2018-12-30T16:52:01.216Z,101789.37
2018-12-30T16:54:32.541Z,101788.52
2018-12-30T16:57:03.661Z,101795.13
2018-12-30T16:59:34.566Z,101796.42
2018-12-30T17:02:08.146Z,101797.33
2018-12-30T17:05:10.633Z,101791.14
2018-12-30T17:07:20.888Z,101785.35
2018-12-30T17:09:51.876Z,101790.66
2018-12-30T17:12:23.042Z,101798.97
2018-12-30T17:14:54.545Z,101796.36
2018-12-30T17:17:25.824Z,101797.63
2018-12-30T17:19:56.886Z,101811.62
2018-12-30T17:22:29.878Z,101798.88
2018-12-30T17:25:01.378Z,101804.11
2018-12-30T17:27:33.882Z,101801.76
2018-12-30T17:32:49.136Z,101805.59
2018-12-30T17:35:20.566Z,101809.05
2018-12-30T17:37:54.328Z,101814.74
2018-12-30T17:40:26.739Z,101812.54
2018-12-30T17:42:57.914Z,101831.42
2018-12-30T17:45:29.454Z,101827.45
2018-12-30T17:48:00.280Z,101824.89
2018-12-30T17:50:31.142Z,101825.30
2018-12-30T17:53:02.002Z,101824.01
2018-12-30T17:55:32.814Z,101836.36
2018-12-30T17:58:03.633Z,101823.98
2018-12-30T18:00:35.108Z,101841.52
2018-12-30T18:03:05.912Z,101833.09
2018-12-30T18:06:17.370Z,101840.47
2018-12-30T18:08:49.881Z,101842.86
2018-12-30T18:11:21.136Z,101851.72
2018-12-30T18:13:52.168Z,101846.00
2018-12-30T18:16:24.360Z,101864.84
2018-12-30T18:18:56.719Z,101862.55
2018-12-30T18:21:27.889Z,101867.30
2018-12-30T18:23:58.901Z,101874.70
2018-12-30T18:26:37.588Z,101869.05
2018-12-30T18:29:02.763Z,101874.70
2018-12-30T18:31:34.258Z,101881.27
2018-12-30T18:34:05.863Z,101878.67
2018-12-30T18:36:36.876Z,101881.86
2018-12-30T18:39:09.474Z,101880.05
2018-12-30T18:41:40.314Z,101875.30
2018-12-30T18:44:11.162Z,101884.52
2018-12-30T18:46:42.453Z,101887.87
2018-12-30T18:49:13.655Z,101885.55
2018-12-30T18:51:44.546Z,101891.58
2018-12-30T18:54:15.730Z,101886.81
2018-12-30T18:56:47.443Z,101892.89
2018-12-30T18:59:23.500Z,101897.23
2018-12-30T19:01:56.141Z,101903.25
2018-12-30T19:04:27.352Z,101905.05
2018-12-30T19:06:58.222Z,101905.55
2018-12-30T19:09:29.066Z,101907.19
2018-12-30T19:12:00.190Z,101911.66
2018-12-30T19:14:31.043Z,101914.26
2018-12-30T19:17:20.063Z,101915.55
2018-12-30T19:19:51.342Z,101918.70
2018-12-30T19:22:22.246Z,101916.23
2018-12-30T19:24:54.068Z,101918.42
2018-12-30T19:27:47.209Z,101928.06
2018-12-30T19:30:18.042Z,101924.55
2018-12-30T19:32:49.336Z,101920.59
2018-12-30T19:35:20.208Z,101929.86
2018-12-30T19:37:51.175Z,101922.80
2018-12-30T19:40:22.393Z,101916.23
2018-12-30T19:42:53.192Z,101920.96
2018-12-30T19:45:24.002Z,101916.06
2018-12-30T19:47:55.273Z,101920.83
2018-12-30T19:50:26.607Z,101927.70
2018-12-30T19:53:16.202Z,101930.22
2018-12-30T19:55:47.522Z,101927.45
2018-12-30T19:58:18.413Z,101915.42
2018-12-30T20:00:49.643Z,101928.98
2018-12-30T20:03:20.762Z,101924.13
2018-12-30T20:05:51.965Z,101932.33
2018-12-30T20:08:22.721Z,101914.72
2018-12-30T20:10:53.753Z,101932.11
2018-12-30T20:13:24.768Z,101920.78
2018-12-30T20:15:55.641Z,101922.52
2018-12-30T20:18:26.483Z,101930.25
2018-12-30T20:20:57.294Z,101925.66
2018-12-30T20:23:28.323Z,101927.80
2018-12-30T20:25:59.129Z,101925.94
2018-12-30T20:28:30.179Z,101927.98
2018-12-30T20:31:00.996Z,101917.87
2018-12-30T20:33:31.833Z,101933.08
2018-12-30T20:36:02.757Z,101933.08
2018-12-30T20:38:33.642Z,101923.89
2018-12-30T20:41:04.475Z,101937.74
2018-12-30T20:43:37.734Z,101933.42
2018-12-30T20:46:08.668Z,101936.05
2018-12-30T20:48:39.467Z,101931.53
2018-12-30T20:51:10.551Z,101936.23
2018-12-30T20:53:41.605Z,101930.05
2018-12-30T20:56:12.593Z,101936.87
2018-12-30T20:58:43.503Z,101933.27
2018-12-30T21:01:14.833Z,101945.13
2018-12-30T21:03:45.776Z,101952.91
2018-12-30T21:06:16.629Z,101953.38
2018-12-30T21:08:47.666Z,101960.27
2018-12-30T21:11:18.533Z,101962.84
2018-12-30T21:13:49.397Z,101966.61
2018-12-30T21:16:20.309Z,101971.56
2018-12-30T21:18:51.121Z,101971.34
2018-12-30T21:21:21.915Z,101970.50
2018-12-30T21:23:52.765Z,101976.09
2018-12-30T21:26:23.583Z,101970.51
2018-12-30T21:28:54.372Z,101974.35
2018-12-30T21:31:25.188Z,101977.11
2018-12-30T21:33:56.136Z,101975.67
2018-12-30T21:36:26.996Z,101972.51
2018-12-30T21:38:57.824Z,101971.02
2018-12-30T21:41:31.363Z,101969.75
2018-12-30T21:44:02.437Z,101977.97
2018-12-30T21:46:33.436Z,101972.98
2018-12-30T21:49:04.217Z,101987.75
2018-12-30T21:51:35.153Z,101988.05
2018-12-30T21:54:06.194Z,101990.58
2018-12-30T21:56:37.062Z,101997.19
2018-12-30T21:59:07.994Z,101991.89
2018-12-30T22:01:38.838Z,102003.28
2018-12-30T22:04:09.680Z,102010.91
2018-12-30T22:06:40.544Z,102011.41
2018-12-30T22:09:11.476Z,102016.03
2018-12-30T22:11:42.294Z,102008.45
2018-12-30T22:14:13.100Z,102006.42
2018-12-30T22:16:43.908Z,102017.09
2018-12-30T22:19:14.720Z,102022.92
2018-12-30T22:21:47.706Z,102024.70
2018-12-30T22:24:18.339Z,102029.06
2018-12-30T22:26:49.212Z,102038.00
2018-12-30T22:29:23.672Z,102021.89
2018-12-30T22:31:54.496Z,102026.68
2018-12-30T22:34:25.266Z,102025.70
2018-12-30T22:36:56.053Z,102021.77
2018-12-30T22:39:27.216Z,102022.84
2018-12-30T22:41:58.084Z,102023.15
2018-12-30T22:44:29.026Z,102027.05
2018-12-30T22:46:59.785Z,102040.81
2018-12-30T22:49:30.683Z,102029.04
2018-12-30T22:52:01.508Z,102034.84
2018-12-30T22:54:32.571Z,102028.91
2018-12-30T22:57:03.384Z,102023.48
2018-12-30T22:59:34.316Z,102013.53
2018-12-30T23:02:05.236Z,102017.43
2018-12-30T23:04:36.119Z,102009.09
2018-12-30T23:07:07.356Z,102018.59
2018-12-30T23:09:38.198Z,102012.68
2018-12-30T23:12:09.150Z,102015.77
2018-12-30T23:14:40.100Z,102011.99
2018-12-30T23:17:11.024Z,102013.73
2018-12-30T23:19:41.903Z,102021.61
2018-12-30T23:22:12.843Z,102021.15
2018-12-30T23:24:43.718Z,102018.36
2018-12-30T23:27:14.586Z,102027.47
2018-12-30T23:29:45.525Z,102025.89
2018-12-30T23:32:16.470Z,102029.48
2018-12-30T23:34:47.427Z,102039.53
2018-12-30T23:37:18.251Z,102041.15
2018-12-30T23:39:49.164Z,102045.47
2018-12-30T23:42:20.032Z,102047.55
2018-12-30T23:44:50.892Z,102052.42
2018-12-30T23:47:24.811Z,102052.00
2018-12-30T23:49:55.727Z,102057.24
2018-12-30T23:52:26.540Z,102060.59
2018-12-30T23:54:57.494Z,102067.70
2018-12-30T23:57:28.404Z,102071.69
2018-12-30T23:59:59.178Z,102066.60
